sensor_id;sensor_type;location;lat;lon;timestamp;temperature;humidity
34137;DHT22;20414;50.860;4.382;2022-08-01T00:01:23;25.80;51.00
34137;DHT22;20414;50.860;4.382;2022-08-01T00:03:49;25.70;50.90
34137;DHT22;20414;50.860;4.382;2022-08-01T00:06:14;25.80;51.00
34137;DHT22;20414;50.860;4.382;2022-08-01T00:08:40;25.80;51.00
34137;DHT22;20414;50.860;4.382;2022-08-01T00:11:06;25.80;51.00
34137;DHT22;20414;50.860;4.382;2022-08-01T00:13:31;25.70;50.90
34137;DHT22;20414;50.860;4.382;2022-08-01T00:15:57;25.70;50.90
34137;DHT22;20414;50.860;4.382;2022-08-01T00:18:23;25.70;50.90
34137;DHT22;20414;50.860;4.382;2022-08-01T00:20:48;25.80;51.00
34137;DHT22;20414;50.860;4.382;2022-08-01T00:23:14;25.80;51.00
34137;DHT22;20414;50.860;4.382;2022-08-01T00:25:39;25.80;51.00
34137;DHT22;20414;50.860;4.382;2022-08-01T00:28:05;25.80;51.00
34137;DHT22;20414;50.860;4.382;2022-08-01T00:30:34;25.70;50.90
34137;DHT22;20414;50.860;4.382;2022-08-01T00:33:00;25.70;50.90
34137;DHT22;20414;50.860;4.382;2022-08-01T00:35:26;25.80;51.00
34137;DHT22;20414;50.860;4.382;2022-08-01T00:37:52;25.70;50.90
34137;DHT22;20414;50.860;4.382;2022-08-01T00:40:18;25.80;51.00
34137;DHT22;20414;50.860;4.382;2022-08-01T00:42:43;25.70;51.50
34137;DHT22;20414;50.860;4.382;2022-08-01T00:45:10;25.70;50.90
34137;DHT22;20414;50.860;4.382;2022-08-01T00:47:35;25.80;51.00
34137;DHT22;20414;50.860;4.382;2022-08-01T00:50:04;25.80;51.00
34137;DHT22;20414;50.860;4.382;2022-08-01T00:52:30;25.80;51.00
34137;DHT22;20414;50.860;4.382;2022-08-01T00:54:55;25.70;50.90
34137;DHT22;20414;50.860;4.382;2022-08-01T00:57:21;25.80;51.00
34137;DHT22;20414;50.860;4.382;2022-08-01T00:59:47;25.70;50.90
34137;DHT22;20414;50.860;4.382;2022-08-01T01:02:13;25.70;50.90
34137;DHT22;20414;50.860;4.382;2022-08-01T01:04:38;25.80;51.00
34137;DHT22;20414;50.860;4.382;2022-08-01T01:07:21;25.70;50.90
34137;DHT22;20414;50.860;4.382;2022-08-01T01:10:00;25.70;51.00
34137;DHT22;20414;50.860;4.382;2022-08-01T01:12:38;25.70;51.00
34137;DHT22;20414;50.860;4.382;2022-08-01T01:20:34;25.70;51.00
34137;DHT22;20414;50.860;4.382;2022-08-01T01:26:26;25.70;50.90
34137;DHT22;20414;50.860;4.382;2022-08-01T01:31:59;25.70;51.00
34137;DHT22;20414;50.860;4.382;2022-08-01T01:34:28;25.80;51.10
34137;DHT22;20414;50.860;4.382;2022-08-01T01:36:54;25.70;51.00
34137;DHT22;20414;50.860;4.382;2022-08-01T01:39:24;25.70;51.00
34137;DHT22;20414;50.860;4.382;2022-08-01T01:41:52;25.70;51.00
34137;DHT22;20414;50.860;4.382;2022-08-01T01:44:18;25.80;51.10
34137;DHT22;20414;50.860;4.382;2022-08-01T01:46:45;25.70;51.00
34137;DHT22;20414;50.860;4.382;2022-08-01T01:49:12;25.80;51.00
34137;DHT22;20414;50.860;4.382;2022-08-01T01:51:40;25.70;51.00
34137;DHT22;20414;50.860;4.382;2022-08-01T01:54:08;25.70;51.00
34137;DHT22;20414;50.860;4.382;2022-08-01T01:56:35;25.70;51.00
34137;DHT22;20414;50.860;4.382;2022-08-01T01:59:20;25.70;51.00
34137;DHT22;20414;50.860;4.382;2022-08-01T02:01:48;25.70;51.00
34137;DHT22;20414;50.860;4.382;2022-08-01T02:04:16;25.70;51.10
34137;DHT22;20414;50.860;4.382;2022-08-01T02:06:43;25.70;51.00
34137;DHT22;20414;50.860;4.382;2022-08-01T02:09:10;25.70;51.00
34137;DHT22;20414;50.860;4.382;2022-08-01T02:11:37;25.70;51.00
34137;DHT22;20414;50.860;4.382;2022-08-01T02:14:03;25.70;51.00
34137;DHT22;20414;50.860;4.382;2022-08-01T02:16:33;25.70;51.00
34137;DHT22;20414;50.860;4.382;2022-08-01T02:18:59;25.70;51.00
34137;DHT22;20414;50.860;4.382;2022-08-01T02:21:30;25.70;51.00
34137;DHT22;20414;50.860;4.382;2022-08-01T02:24:03;25.70;51.00
34137;DHT22;20414;50.860;4.382;2022-08-01T02:26:34;25.70;51.00
34137;DHT22;20414;50.860;4.382;2022-08-01T02:29:07;25.70;51.00
34137;DHT22;20414;50.860;4.382;2022-08-01T02:31:36;25.70;51.00
34137;DHT22;20414;50.860;4.382;2022-08-01T02:34:05;25.70;51.00
34137;DHT22;20414;50.860;4.382;2022-08-01T02:36:35;25.70;51.00
34137;DHT22;20414;50.860;4.382;2022-08-01T02:39:09;25.70;51.00
34137;DHT22;20414;50.860;4.382;2022-08-01T02:41:41;25.70;51.10
34137;DHT22;20414;50.860;4.382;2022-08-01T02:44:10;25.70;51.10
34137;DHT22;20414;50.860;4.382;2022-08-01T02:46:39;25.70;51.10
34137;DHT22;20414;50.860;4.382;2022-08-01T02:49:08;25.70;51.10
34137;DHT22;20414;50.860;4.382;2022-08-01T02:51:36;25.70;51.10
34137;DHT22;20414;50.860;4.382;2022-08-01T02:54:05;25.70;51.10
34137;DHT22;20414;50.860;4.382;2022-08-01T02:56:32;25.70;51.10
34137;DHT22;20414;50.860;4.382;2022-08-01T02:59:07;25.70;51.10
34137;DHT22;20414;50.860;4.382;2022-08-01T03:01:34;25.70;51.10
34137;DHT22;20414;50.860;4.382;2022-08-01T03:04:01;25.70;51.10
34137;DHT22;20414;50.860;4.382;2022-08-01T03:06:27;25.70;51.10
34137;DHT22;20414;50.860;4.382;2022-08-01T03:08:54;25.70;51.10
34137;DHT22;20414;50.860;4.382;2022-08-01T03:11:21;25.70;51.10
34137;DHT22;20414;50.860;4.382;2022-08-01T03:13:50;25.70;51.10
34137;DHT22;20414;50.860;4.382;2022-08-01T03:16:18;25.70;51.10
34137;DHT22;20414;50.860;4.382;2022-08-01T03:18:44;25.70;51.10
34137;DHT22;20414;50.860;4.382;2022-08-01T03:21:13;25.70;51.10
34137;DHT22;20414;50.860;4.382;2022-08-01T03:23:40;25.70;51.10
34137;DHT22;20414;50.860;4.382;2022-08-01T03:26:07;25.70;51.10
34137;DHT22;20414;50.860;4.382;2022-08-01T03:28:33;25.70;51.10
34137;DHT22;20414;50.860;4.382;2022-08-01T03:31:02;25.70;51.10
34137;DHT22;20414;50.860;4.382;2022-08-01T03:33:28;25.70;51.10
34137;DHT22;20414;50.860;4.382;2022-08-01T03:35:54;25.70;51.10
34137;DHT22;20414;50.860;4.382;2022-08-01T03:38:25;25.70;51.10
34137;DHT22;20414;50.860;4.382;2022-08-01T03:41:15;25.70;51.10
34137;DHT22;20414;50.860;4.382;2022-08-01T03:43:49;25.70;51.10
34137;DHT22;20414;50.860;4.382;2022-08-01T03:46:27;25.70;51.10
34137;DHT22;20414;50.860;4.382;2022-08-01T03:48:55;25.70;51.10
34137;DHT22;20414;50.860;4.382;2022-08-01T03:51:25;25.70;51.10
34137;DHT22;20414;50.860;4.382;2022-08-01T03:53:51;25.70;51.10
34137;DHT22;20414;50.860;4.382;2022-08-01T03:56:19;25.70;51.20
34137;DHT22;20414;50.860;4.382;2022-08-01T03:58:46;25.70;51.20
34137;DHT22;20414;50.860;4.382;2022-08-01T04:01:13;25.70;51.20
34137;DHT22;20414;50.860;4.382;2022-08-01T04:03:39;25.70;51.20
34137;DHT22;20414;50.860;4.382;2022-08-01T04:06:06;25.70;51.20
34137;DHT22;20414;50.860;4.382;2022-08-01T04:08:42;25.70;51.20
34137;DHT22;20414;50.860;4.382;2022-08-01T04:11:09;25.70;51.20
34137;DHT22;20414;50.860;4.382;2022-08-01T04:13:35;25.70;51.20
34137;DHT22;20414;50.860;4.382;2022-08-01T04:16:01;25.70;51.20
34137;DHT22;20414;50.860;4.382;2022-08-01T04:18:27;25.70;51.20
34137;DHT22;20414;50.860;4.382;2022-08-01T04:20:52;25.60;51.20
34137;DHT22;20414;50.860;4.382;2022-08-01T04:23:22;25.70;51.30
34137;DHT22;20414;50.860;4.382;2022-08-01T04:25:50;25.70;51.20
34137;DHT22;20414;50.860;4.382;2022-08-01T04:28:16;25.70;51.20
34137;DHT22;20414;50.860;4.382;2022-08-01T04:30:44;25.70;51.20
34137;DHT22;20414;50.860;4.382;2022-08-01T04:33:13;25.70;51.20
34137;DHT22;20414;50.860;4.382;2022-08-01T04:35:45;25.60;51.20
34137;DHT22;20414;50.860;4.382;2022-08-01T04:38:13;25.70;51.20
34137;DHT22;20414;50.860;4.382;2022-08-01T04:40:42;25.70;51.30
34137;DHT22;20414;50.860;4.382;2022-08-01T04:43:09;25.70;51.20
34137;DHT22;20414;50.860;4.382;2022-08-01T04:45:35;25.70;51.20
34137;DHT22;20414;50.860;4.382;2022-08-01T04:48:02;25.70;51.20
34137;DHT22;20414;50.860;4.382;2022-08-01T04:50:32;25.60;51.20
34137;DHT22;20414;50.860;4.382;2022-08-01T04:52:57;25.70;51.30
34137;DHT22;20414;50.860;4.382;2022-08-01T04:55:23;25.70;51.30
34137;DHT22;20414;50.860;4.382;2022-08-01T04:57:49;25.70;51.30
34137;DHT22;20414;50.860;4.382;2022-08-01T05:00:15;25.70;51.30
34137;DHT22;20414;50.860;4.382;2022-08-01T05:02:42;25.60;51.30
34137;DHT22;20414;50.860;4.382;2022-08-01T05:05:08;25.70;51.30
34137;DHT22;20414;50.860;4.382;2022-08-01T05:07:33;25.60;51.30
34137;DHT22;20414;50.860;4.382;2022-08-01T05:10:03;25.60;51.20
34137;DHT22;20414;50.860;4.382;2022-08-01T05:12:29;25.60;51.30
34137;DHT22;20414;50.860;4.382;2022-08-01T05:14:54;25.70;51.30
34137;DHT22;20414;50.860;4.382;2022-08-01T05:17:21;25.70;51.30
34137;DHT22;20414;50.860;4.382;2022-08-01T05:19:46;25.60;51.30
34137;DHT22;20414;50.860;4.382;2022-08-01T05:22:12;25.60;51.30
34137;DHT22;20414;50.860;4.382;2022-08-01T05:24:39;25.60;51.30
34137;DHT22;20414;50.860;4.382;2022-08-01T05:27:05;25.60;51.30
34137;DHT22;20414;50.860;4.382;2022-08-01T05:29:32;25.60;51.30
34137;DHT22;20414;50.860;4.382;2022-08-01T05:31:57;25.60;51.30
34137;DHT22;20414;50.860;4.382;2022-08-01T05:34:24;25.70;51.30
34137;DHT22;20414;50.860;4.382;2022-08-01T05:36:50;25.60;51.30
34137;DHT22;20414;50.860;4.382;2022-08-01T05:39:16;25.60;51.30
34137;DHT22;20414;50.860;4.382;2022-08-01T05:41:41;25.70;51.30
34137;DHT22;20414;50.860;4.382;2022-08-01T05:44:08;25.60;51.30
34137;DHT22;20414;50.860;4.382;2022-08-01T05:46:34;25.60;51.30
34137;DHT22;20414;50.860;4.382;2022-08-01T05:49:00;25.60;51.30
34137;DHT22;20414;50.860;4.382;2022-08-01T05:51:26;25.60;51.30
34137;DHT22;20414;50.860;4.382;2022-08-01T05:53:52;25.60;51.30
34137;DHT22;20414;50.860;4.382;2022-08-01T05:56:19;25.60;51.30
34137;DHT22;20414;50.860;4.382;2022-08-01T05:58:44;25.60;51.30
34137;DHT22;20414;50.860;4.382;2022-08-01T06:01:10;25.60;51.30
34137;DHT22;20414;50.860;4.382;2022-08-01T06:03:36;25.60;51.30
34137;DHT22;20414;50.860;4.382;2022-08-01T06:06:02;25.60;51.30
34137;DHT22;20414;50.860;4.382;2022-08-01T06:08:28;25.60;51.30
34137;DHT22;20414;50.860;4.382;2022-08-01T06:10:54;25.60;51.30
34137;DHT22;20414;50.860;4.382;2022-08-01T06:13:20;25.60;51.30
34137;DHT22;20414;50.860;4.382;2022-08-01T06:15:46;25.60;51.30
34137;DHT22;20414;50.860;4.382;2022-08-01T06:18:12;25.60;51.30
34137;DHT22;20414;50.860;4.382;2022-08-01T06:20:38;25.60;51.90
34137;DHT22;20414;50.860;4.382;2022-08-01T06:23:04;25.60;51.30
34137;DHT22;20414;50.860;4.382;2022-08-01T06:25:29;25.60;51.30
34137;DHT22;20414;50.860;4.382;2022-08-01T06:27:55;25.60;51.30
34137;DHT22;20414;50.860;4.382;2022-08-01T06:30:21;25.50;51.20
34137;DHT22;20414;50.860;4.382;2022-08-01T06:32:46;25.60;51.30
34137;DHT22;20414;50.860;4.382;2022-08-01T06:35:13;25.60;51.30
34137;DHT22;20414;50.860;4.382;2022-08-01T06:37:39;25.60;51.30
34137;DHT22;20414;50.860;4.382;2022-08-01T06:40:07;25.60;51.30
34137;DHT22;20414;50.860;4.382;2022-08-01T06:42:33;25.60;51.30
34137;DHT22;20414;50.860;4.382;2022-08-01T06:45:09;25.60;51.30
34137;DHT22;20414;50.860;4.382;2022-08-01T06:47:36;25.60;51.30
34137;DHT22;20414;50.860;4.382;2022-08-01T06:50:03;25.60;51.30
34137;DHT22;20414;50.860;4.382;2022-08-01T06:52:29;25.60;51.30
34137;DHT22;20414;50.860;4.382;2022-08-01T06:54:54;25.60;51.30
34137;DHT22;20414;50.860;4.382;2022-08-01T06:57:20;25.60;51.30
34137;DHT22;20414;50.860;4.382;2022-08-01T06:59:46;25.60;51.40
34137;DHT22;20414;50.860;4.382;2022-08-01T07:02:11;25.60;51.40
34137;DHT22;20414;50.860;4.382;2022-08-01T07:04:37;25.60;51.40
34137;DHT22;20414;50.860;4.382;2022-08-01T07:07:03;25.60;51.40
34137;DHT22;20414;50.860;4.382;2022-08-01T07:09:28;25.60;51.30
34137;DHT22;20414;50.860;4.382;2022-08-01T07:11:55;25.60;51.40
34137;DHT22;20414;50.860;4.382;2022-08-01T07:14:21;25.60;51.40
34137;DHT22;20414;50.860;4.382;2022-08-01T07:16:47;25.50;51.30
34137;DHT22;20414;50.860;4.382;2022-08-01T07:19:13;25.60;51.40
34137;DHT22;20414;50.860;4.382;2022-08-01T07:21:39;25.60;51.30
34137;DHT22;20414;50.860;4.382;2022-08-01T07:24:11;25.60;51.40
34137;DHT22;20414;50.860;4.382;2022-08-01T07:26:38;25.60;51.40
34137;DHT22;20414;50.860;4.382;2022-08-01T07:29:04;25.60;51.40
34137;DHT22;20414;50.860;4.382;2022-08-01T07:31:30;25.60;51.40
34137;DHT22;20414;50.860;4.382;2022-08-01T07:33:55;25.60;51.40
34137;DHT22;20414;50.860;4.382;2022-08-01T07:36:21;25.60;51.40
34137;DHT22;20414;50.860;4.382;2022-08-01T07:38:47;25.60;51.40
34137;DHT22;20414;50.860;4.382;2022-08-01T07:41:13;25.60;51.40
34137;DHT22;20414;50.860;4.382;2022-08-01T07:43:38;25.60;51.40
34137;DHT22;20414;50.860;4.382;2022-08-01T07:46:04;25.60;51.40
34137;DHT22;20414;50.860;4.382;2022-08-01T07:48:30;25.60;51.30
34137;DHT22;20414;50.860;4.382;2022-08-01T07:50:56;25.60;51.40
34137;DHT22;20414;50.860;4.382;2022-08-01T07:53:22;25.60;51.30
34137;DHT22;20414;50.860;4.382;2022-08-01T07:55:48;25.60;51.30
34137;DHT22;20414;50.860;4.382;2022-08-01T07:58:14;25.60;51.30
34137;DHT22;20414;50.860;4.382;2022-08-01T08:00:40;25.60;51.30
34137;DHT22;20414;50.860;4.382;2022-08-01T08:03:06;25.60;51.30
34137;DHT22;20414;50.860;4.382;2022-08-01T08:05:32;25.60;51.30
34137;DHT22;20414;50.860;4.382;2022-08-01T08:08:02;25.60;51.40
34137;DHT22;20414;50.860;4.382;2022-08-01T08:10:27;25.60;51.40
34137;DHT22;20414;50.860;4.382;2022-08-01T08:12:53;25.60;51.40
34137;DHT22;20414;50.860;4.382;2022-08-01T08:15:18;25.60;51.40
34137;DHT22;20414;50.860;4.382;2022-08-01T08:17:44;25.60;51.30
34137;DHT22;20414;50.860;4.382;2022-08-01T08:20:10;25.60;51.40
34137;DHT22;20414;50.860;4.382;2022-08-01T08:22:39;25.60;51.40
34137;DHT22;20414;50.860;4.382;2022-08-01T08:25:06;25.60;51.30
34137;DHT22;20414;50.860;4.382;2022-08-01T08:27:32;25.60;51.30
34137;DHT22;20414;50.860;4.382;2022-08-01T08:29:57;25.60;51.40
34137;DHT22;20414;50.860;4.382;2022-08-01T08:32:23;25.60;51.30
34137;DHT22;20414;50.860;4.382;2022-08-01T08:34:49;25.60;51.30
34137;DHT22;20414;50.860;4.382;2022-08-01T08:37:14;25.60;51.30
34137;DHT22;20414;50.860;4.382;2022-08-01T08:39:40;25.60;51.30
34137;DHT22;20414;50.860;4.382;2022-08-01T08:42:07;25.60;51.30
34137;DHT22;20414;50.860;4.382;2022-08-01T08:44:33;25.60;51.30
34137;DHT22;20414;50.860;4.382;2022-08-01T08:47:01;25.60;51.40
34137;DHT22;20414;50.860;4.382;2022-08-01T08:49:29;25.60;51.40
34137;DHT22;20414;50.860;4.382;2022-08-01T08:51:58;25.50;51.40
34137;DHT22;20414;50.860;4.382;2022-08-01T08:54:24;25.60;51.50
34137;DHT22;20414;50.860;4.382;2022-08-01T08:56:54;25.50;51.40
34137;DHT22;20414;50.860;4.382;2022-08-01T08:59:19;25.60;51.50
34137;DHT22;20414;50.860;4.382;2022-08-01T09:01:46;25.60;51.50
34137;DHT22;20414;50.860;4.382;2022-08-01T09:04:13;25.60;51.50
34137;DHT22;20414;50.860;4.382;2022-08-01T09:06:39;25.60;51.50
34137;DHT22;20414;50.860;4.382;2022-08-01T09:09:06;25.60;51.50
34137;DHT22;20414;50.860;4.382;2022-08-01T09:11:33;25.60;51.50
34137;DHT22;20414;50.860;4.382;2022-08-01T09:14:13;25.50;51.40
34137;DHT22;20414;50.860;4.382;2022-08-01T09:16:44;25.60;51.50
34137;DHT22;20414;50.860;4.382;2022-08-01T09:19:19;25.60;51.50
34137;DHT22;20414;50.860;4.382;2022-08-01T09:22:00;25.60;51.50
34137;DHT22;20414;50.860;4.382;2022-08-01T09:24:30;25.60;51.50
34137;DHT22;20414;50.860;4.382;2022-08-01T09:26:56;25.60;51.50
34137;DHT22;20414;50.860;4.382;2022-08-01T09:29:25;25.60;51.50
34137;DHT22;20414;50.860;4.382;2022-08-01T09:31:51;25.60;51.60
34137;DHT22;20414;50.860;4.382;2022-08-01T09:34:25;25.60;51.50
34137;DHT22;20414;50.860;4.382;2022-08-01T09:36:53;25.60;51.60
34137;DHT22;20414;50.860;4.382;2022-08-01T09:39:26;25.60;51.60
34137;DHT22;20414;50.860;4.382;2022-08-01T09:41:56;25.60;51.60
34137;DHT22;20414;50.860;4.382;2022-08-01T09:44:40;25.50;51.50
34137;DHT22;20414;50.860;4.382;2022-08-01T09:47:06;25.50;51.50
34137;DHT22;20414;50.860;4.382;2022-08-01T09:49:37;25.50;51.50
34137;DHT22;20414;50.860;4.382;2022-08-01T09:52:14;25.60;51.60
34137;DHT22;20414;50.860;4.382;2022-08-01T09:54:41;25.60;51.60
34137;DHT22;20414;50.860;4.382;2022-08-01T09:57:15;25.50;51.50
34137;DHT22;20414;50.860;4.382;2022-08-01T09:59:44;25.60;51.60
34137;DHT22;20414;50.860;4.382;2022-08-01T10:02:11;25.50;51.50
34137;DHT22;20414;50.860;4.382;2022-08-01T10:04:50;25.60;51.60
34137;DHT22;20414;50.860;4.382;2022-08-01T10:07:18;25.60;51.60
34137;DHT22;20414;50.860;4.382;2022-08-01T10:09:45;25.60;51.60
34137;DHT22;20414;50.860;4.382;2022-08-01T10:12:13;25.50;51.50
34137;DHT22;20414;50.860;4.382;2022-08-01T10:14:40;25.60;51.60
34137;DHT22;20414;50.860;4.382;2022-08-01T10:17:08;25.60;51.60
34137;DHT22;20414;50.860;4.382;2022-08-01T10:19:36;25.60;51.60
34137;DHT22;20414;50.860;4.382;2022-08-01T10:22:04;25.60;51.60
34137;DHT22;20414;50.860;4.382;2022-08-01T10:24:31;25.60;51.60
34137;DHT22;20414;50.860;4.382;2022-08-01T10:27:01;25.60;51.60
34137;DHT22;20414;50.860;4.382;2022-08-01T10:29:41;25.60;51.60
34137;DHT22;20414;50.860;4.382;2022-08-01T10:32:07;25.60;52.20
34137;DHT22;20414;50.860;4.382;2022-08-01T10:34:35;25.60;51.60
34137;DHT22;20414;50.860;4.382;2022-08-01T10:37:02;25.60;51.60
34137;DHT22;20414;50.860;4.382;2022-08-01T10:39:28;25.60;51.60
34137;DHT22;20414;50.860;4.382;2022-08-01T10:41:56;25.60;51.50
34137;DHT22;20414;50.860;4.382;2022-08-01T10:44:23;25.60;51.60
34137;DHT22;20414;50.860;4.382;2022-08-01T10:46:54;25.60;51.60
34137;DHT22;20414;50.860;4.382;2022-08-01T10:49:22;25.60;51.60
34137;DHT22;20414;50.860;4.382;2022-08-01T10:51:49;25.60;51.50
34137;DHT22;20414;50.860;4.382;2022-08-01T10:54:15;25.60;51.60
34137;DHT22;20414;50.860;4.382;2022-08-01T10:56:49;25.60;51.60
34137;DHT22;20414;50.860;4.382;2022-08-01T10:59:29;25.60;51.60
34137;DHT22;20414;50.860;4.382;2022-08-01T11:04:44;25.60;51.50
34137;DHT22;20414;50.860;4.382;2022-08-01T11:07:17;25.60;51.60
34137;DHT22;20414;50.860;4.382;2022-08-01T11:09:46;25.60;51.60
34137;DHT22;20414;50.860;4.382;2022-08-01T11:12:17;25.60;51.60
34137;DHT22;20414;50.860;4.382;2022-08-01T11:17:44;25.60;51.50
34137;DHT22;20414;50.860;4.382;2022-08-01T11:20:20;25.60;51.50
34137;DHT22;20414;50.860;4.382;2022-08-01T11:28:31;25.60;51.50
34137;DHT22;20414;50.860;4.382;2022-08-01T11:38:48;25.60;51.60
34137;DHT22;20414;50.860;4.382;2022-08-01T11:41:24;25.60;51.50
34137;DHT22;20414;50.860;4.382;2022-08-01T11:47:02;25.60;51.50
34137;DHT22;20414;50.860;4.382;2022-08-01T11:49:45;25.60;51.50
34137;DHT22;20414;50.860;4.382;2022-08-01T11:52:23;25.60;51.50
34137;DHT22;20414;50.860;4.382;2022-08-01T11:54:54;25.60;51.50
34137;DHT22;20414;50.860;4.382;2022-08-01T11:57:38;25.60;51.50
34137;DHT22;20414;50.860;4.382;2022-08-01T12:00:15;25.60;51.50
34137;DHT22;20414;50.860;4.382;2022-08-01T12:02:42;25.60;51.50
34137;DHT22;20414;50.860;4.382;2022-08-01T12:05:10;25.60;51.50
34137;DHT22;20414;50.860;4.382;2022-08-01T12:07:38;25.60;51.50
34137;DHT22;20414;50.860;4.382;2022-08-01T12:10:09;25.60;51.50
34137;DHT22;20414;50.860;4.382;2022-08-01T12:12:36;25.60;51.50
34137;DHT22;20414;50.860;4.382;2022-08-01T12:15:07;25.70;51.60
34137;DHT22;20414;50.860;4.382;2022-08-01T12:17:38;25.60;51.50
34137;DHT22;20414;50.860;4.382;2022-08-01T12:20:06;25.60;51.50
34137;DHT22;20414;50.860;4.382;2022-08-01T12:22:32;25.60;51.50
34137;DHT22;20414;50.860;4.382;2022-08-01T12:25:06;25.60;51.50
34137;DHT22;20414;50.860;4.382;2022-08-01T12:27:33;25.60;51.50
34137;DHT22;20414;50.860;4.382;2022-08-01T12:29:59;25.60;51.50
34137;DHT22;20414;50.860;4.382;2022-08-01T12:32:31;25.70;51.60
34137;DHT22;20414;50.860;4.382;2022-08-01T12:35:02;25.60;51.50
34137;DHT22;20414;50.860;4.382;2022-08-01T12:37:29;25.60;51.50
34137;DHT22;20414;50.860;4.382;2022-08-01T12:39:55;25.70;51.50
34137;DHT22;20414;50.860;4.382;2022-08-01T12:42:21;25.60;51.50
34137;DHT22;20414;50.860;4.382;2022-08-01T12:44:49;25.70;51.50
34137;DHT22;20414;50.860;4.382;2022-08-01T12:47:17;25.60;51.50
34137;DHT22;20414;50.860;4.382;2022-08-01T12:49:43;25.60;51.50
34137;DHT22;20414;50.860;4.382;2022-08-01T12:52:11;25.60;51.40
34137;DHT22;20414;50.860;4.382;2022-08-01T12:55:05;25.60;51.50
34137;DHT22;20414;50.860;4.382;2022-08-01T12:57:32;25.70;51.50
34137;DHT22;20414;50.860;4.382;2022-08-01T13:00:13;25.60;51.50
34137;DHT22;20414;50.860;4.382;2022-08-01T13:02:39;25.70;51.50
34137;DHT22;20414;50.860;4.382;2022-08-01T13:05:05;25.70;51.50
34137;DHT22;20414;50.860;4.382;2022-08-01T13:07:50;25.70;51.50
34137;DHT22;20414;50.860;4.382;2022-08-01T13:10:36;25.70;51.50
34137;DHT22;20414;50.860;4.382;2022-08-01T13:13:02;25.70;51.50
34137;DHT22;20414;50.860;4.382;2022-08-01T13:15:30;25.70;51.50
34137;DHT22;20414;50.860;4.382;2022-08-01T13:17:58;25.70;51.50
34137;DHT22;20414;50.860;4.382;2022-08-01T13:20:30;25.70;51.50
34137;DHT22;20414;50.860;4.382;2022-08-01T13:23:13;25.70;51.50
34137;DHT22;20414;50.860;4.382;2022-08-01T13:25:55;25.70;52.00
34137;DHT22;20414;50.860;4.382;2022-08-01T13:28:23;25.70;51.50
34137;DHT22;20414;50.860;4.382;2022-08-01T13:31:14;25.70;51.50
34137;DHT22;20414;50.860;4.382;2022-08-01T13:33:47;25.70;51.50
34137;DHT22;20414;50.860;4.382;2022-08-01T13:36:13;25.60;51.40
34137;DHT22;20414;50.860;4.382;2022-08-01T13:38:40;25.70;51.50
34137;DHT22;20414;50.860;4.382;2022-08-01T13:41:24;25.70;51.50
34137;DHT22;20414;50.860;4.382;2022-08-01T13:43:50;25.70;51.50
34137;DHT22;20414;50.860;4.382;2022-08-01T13:46:16;25.70;51.50
34137;DHT22;20414;50.860;4.382;2022-08-01T13:48:42;25.70;51.50
34137;DHT22;20414;50.860;4.382;2022-08-01T13:51:07;25.70;51.50
34137;DHT22;20414;50.860;4.382;2022-08-01T13:53:33;25.70;51.50
34137;DHT22;20414;50.860;4.382;2022-08-01T13:55:59;25.70;51.50
34137;DHT22;20414;50.860;4.382;2022-08-01T13:58:25;25.70;51.50
34137;DHT22;20414;50.860;4.382;2022-08-01T14:00:50;25.70;51.40
34137;DHT22;20414;50.860;4.382;2022-08-01T14:03:16;25.70;51.40
34137;DHT22;20414;50.860;4.382;2022-08-01T14:05:43;25.70;51.40
34137;DHT22;20414;50.860;4.382;2022-08-01T14:08:09;25.70;51.40
34137;DHT22;20414;50.860;4.382;2022-08-01T14:10:35;25.70;51.40
34137;DHT22;20414;50.860;4.382;2022-08-01T14:13:00;25.70;51.40
34137;DHT22;20414;50.860;4.382;2022-08-01T14:15:26;25.70;51.50
34137;DHT22;20414;50.860;4.382;2022-08-01T14:17:52;25.70;51.50
34137;DHT22;20414;50.860;4.382;2022-08-01T14:20:17;25.70;51.40
34137;DHT22;20414;50.860;4.382;2022-08-01T14:22:48;25.70;51.40
34137;DHT22;20414;50.860;4.382;2022-08-01T14:25:13;25.70;51.40
34137;DHT22;20414;50.860;4.382;2022-08-01T14:27:39;25.70;51.40
34137;DHT22;20414;50.860;4.382;2022-08-01T14:30:07;25.70;51.40
34137;DHT22;20414;50.860;4.382;2022-08-01T14:32:34;25.70;51.40
34137;DHT22;20414;50.860;4.382;2022-08-01T14:35:01;25.70;51.40
34137;DHT22;20414;50.860;4.382;2022-08-01T14:37:26;25.70;51.30
34137;DHT22;20414;50.860;4.382;2022-08-01T14:39:53;25.70;51.40
34137;DHT22;20414;50.860;4.382;2022-08-01T14:42:19;25.70;51.40
34137;DHT22;20414;50.860;4.382;2022-08-01T14:44:45;25.70;51.40
34137;DHT22;20414;50.860;4.382;2022-08-01T14:47:10;25.70;51.40
34137;DHT22;20414;50.860;4.382;2022-08-01T14:49:36;25.70;51.30
34137;DHT22;20414;50.860;4.382;2022-08-01T14:52:02;25.70;51.30
34137;DHT22;20414;50.860;4.382;2022-08-01T14:54:27;25.70;51.30
34137;DHT22;20414;50.860;4.382;2022-08-01T14:56:53;25.70;51.30
34137;DHT22;20414;50.860;4.382;2022-08-01T14:59:19;25.70;51.30
34137;DHT22;20414;50.860;4.382;2022-08-01T15:01:45;25.70;51.30
34137;DHT22;20414;50.860;4.382;2022-08-01T15:04:10;25.70;51.30
34137;DHT22;20414;50.860;4.382;2022-08-01T15:06:36;25.70;51.30
34137;DHT22;20414;50.860;4.382;2022-08-01T15:09:02;25.70;51.30
34137;DHT22;20414;50.860;4.382;2022-08-01T15:11:28;25.80;51.40
34137;DHT22;20414;50.860;4.382;2022-08-01T15:13:54;25.70;51.30
34137;DHT22;20414;50.860;4.382;2022-08-01T15:16:38;25.80;51.40
34137;DHT22;20414;50.860;4.382;2022-08-01T15:19:04;25.80;51.40
34137;DHT22;20414;50.860;4.382;2022-08-01T15:21:29;25.70;51.30
34137;DHT22;20414;50.860;4.382;2022-08-01T15:23:55;25.70;51.30
34137;DHT22;20414;50.860;4.382;2022-08-01T15:26:21;25.70;51.30
34137;DHT22;20414;50.860;4.382;2022-08-01T15:28:46;25.80;51.40
34137;DHT22;20414;50.860;4.382;2022-08-01T15:31:12;25.70;51.30
34137;DHT22;20414;50.860;4.382;2022-08-01T15:33:38;25.80;51.30
34137;DHT22;20414;50.860;4.382;2022-08-01T15:36:04;25.70;51.30
34137;DHT22;20414;50.860;4.382;2022-08-01T15:38:30;25.80;51.30
34137;DHT22;20414;50.860;4.382;2022-08-01T15:40:55;25.80;51.30
34137;DHT22;20414;50.860;4.382;2022-08-01T15:43:21;25.80;51.30
34137;DHT22;20414;50.860;4.382;2022-08-01T15:45:47;25.80;51.20
34137;DHT22;20414;50.860;4.382;2022-08-01T15:48:13;25.80;51.20
34137;DHT22;20414;50.860;4.382;2022-08-01T15:50:39;25.80;51.20
34137;DHT22;20414;50.860;4.382;2022-08-01T15:53:05;25.80;51.20
34137;DHT22;20414;50.860;4.382;2022-08-01T15:55:31;25.80;51.20
34137;DHT22;20414;50.860;4.382;2022-08-01T15:57:57;25.80;51.20
34137;DHT22;20414;50.860;4.382;2022-08-01T16:00:23;25.80;51.20
34137;DHT22;20414;50.860;4.382;2022-08-01T16:02:48;25.80;51.20
34137;DHT22;20414;50.860;4.382;2022-08-01T16:05:14;25.80;51.20
34137;DHT22;20414;50.860;4.382;2022-08-01T16:07:39;25.80;51.20
34137;DHT22;20414;50.860;4.382;2022-08-01T16:10:05;25.80;51.20